createdAt,value
2022-10-22T00:01:05.147Z,12.40
2022-10-22T00:03:32.946Z,12.31
2022-10-22T00:06:00.556Z,12.22
2022-10-22T00:08:28.731Z,12.27
2022-10-22T00:10:56.378Z,12.03
2022-10-22T00:13:24.319Z,12.16
2022-10-22T00:15:51.752Z,12.20
2022-10-22T00:18:19.207Z,12.39
2022-10-22T00:20:46.992Z,12.10
2022-10-22T00:23:14.519Z,12.16
2022-10-22T00:25:42.056Z,12.25
2022-10-22T00:28:11.536Z,12.23
2022-10-22T00:30:39.031Z,12.27
2022-10-22T00:33:06.739Z,12.21
2022-10-22T00:35:34.279Z,12.13
2022-10-22T00:38:02.184Z,12.25
2022-10-22T00:40:30.332Z,12.33
2022-10-22T00:42:57.927Z,12.24
2022-10-22T00:45:27.445Z,12.33
2022-10-22T00:48:05.787Z,12.15
2022-10-22T00:50:35.780Z,12.25
2022-10-22T00:53:08.577Z,12.25
2022-10-22T00:55:36.862Z,12.28
2022-10-22T00:58:04.442Z,12.23
2022-10-22T01:00:32.171Z,12.21
2022-10-22T01:02:59.813Z,12.20
2022-10-22T01:05:30.717Z,12.23
2022-10-22T01:07:58.315Z,12.08
2022-10-22T01:11:07.521Z,12.11
2022-10-22T01:13:49.269Z,12.23
2022-10-22T01:16:33.314Z,12.16
2022-10-22T01:19:09.063Z,12.03
2022-10-22T01:21:43.934Z,12.02
2022-10-22T01:24:23.228Z,11.97
2022-10-22T01:27:10.328Z,11.95
2022-10-22T01:29:43.952Z,11.95
2022-10-22T01:32:16.963Z,11.92
2022-10-22T01:34:50.478Z,11.88
2022-10-22T01:37:20.720Z,11.97
2022-10-22T01:39:49.668Z,12.04
2022-10-22T01:42:17.515Z,12.09
2022-10-22T01:44:45.003Z,11.99
2022-10-22T01:47:33.007Z,12.08
2022-10-22T01:50:07.371Z,12.02
2022-10-22T01:52:38.366Z,12.13
2022-10-22T01:55:33.142Z,12.21
2022-10-22T01:58:03.657Z,12.19
2022-10-22T02:00:31.461Z,12.23
2022-10-22T02:03:01.938Z,12.20
2022-10-22T02:05:44.298Z,12.21
2022-10-22T02:08:23.446Z,12.22
2022-10-22T02:10:51.565Z,12.16
2022-10-22T02:13:25.036Z,11.94
2022-10-22T02:15:53.352Z,11.85
2022-10-22T02:18:26.326Z,11.74
2022-10-22T02:20:54.669Z,11.82
2022-10-22T02:23:22.974Z,11.90
2022-10-22T02:25:56.273Z,11.70
2022-10-22T02:28:37.831Z,11.60
2022-10-22T02:31:27.965Z,11.27
2022-10-22T02:33:57.935Z,11.09
2022-10-22T02:36:26.163Z,11.17
2022-10-22T02:38:54.723Z,11.07
2022-10-22T02:41:23.236Z,10.97
2022-10-22T02:43:54.603Z,10.73
2022-10-22T02:46:23.609Z,10.65
2022-10-22T02:48:51.477Z,10.46
2022-10-22T02:51:19.005Z,10.47
2022-10-22T02:53:46.616Z,10.41
2022-10-22T02:56:16.855Z,10.31
2022-10-22T02:58:44.459Z,10.13
2022-10-22T03:01:15.263Z,10.09
2022-10-22T03:03:43.881Z,9.97
2022-10-22T03:06:11.784Z,9.72
2022-10-22T03:08:41.050Z,9.69
2022-10-22T03:11:08.641Z,9.62
2022-10-22T03:13:36.649Z,9.46
2022-10-22T03:16:04.287Z,9.38
2022-10-22T03:18:31.890Z,9.19
2022-10-22T03:21:06.128Z,9.13
2022-10-22T03:23:33.978Z,9.06
2022-10-22T03:26:01.948Z,9.07
2022-10-22T03:28:29.671Z,9.20
2022-10-22T03:30:57.134Z,9.02
2022-10-22T03:33:24.616Z,8.82
2022-10-22T03:35:52.176Z,8.81
2022-10-22T03:38:19.824Z,8.90
2022-10-22T03:40:48.025Z,9.04
2022-10-22T03:43:16.315Z,9.13
2022-10-22T03:45:43.919Z,9.33
2022-10-22T03:48:11.463Z,9.38
2022-10-22T03:50:40.027Z,9.42
2022-10-22T03:53:10.553Z,9.29
2022-10-22T03:55:41.171Z,9.44
2022-10-22T03:58:08.691Z,9.50
2022-10-22T04:00:36.769Z,9.50
2022-10-22T04:03:04.223Z,9.48
2022-10-22T04:05:33.780Z,9.44
2022-10-22T04:08:01.346Z,9.39
2022-10-22T04:10:29.458Z,9.34
2022-10-22T04:12:57.063Z,9.23
2022-10-22T04:15:26.887Z,9.12
2022-10-22T04:17:54.696Z,9.25
2022-10-22T04:20:22.251Z,9.46
2022-10-22T04:22:49.765Z,9.46
2022-10-22T04:25:17.238Z,9.44
2022-10-22T04:27:44.788Z,9.36
2022-10-22T04:30:17.825Z,9.33
2022-10-22T04:32:45.342Z,9.05
2022-10-22T04:35:12.868Z,8.79
2022-10-22T04:37:40.563Z,8.97
2022-10-22T04:40:08.786Z,8.75
2022-10-22T04:42:36.200Z,8.70
2022-10-22T04:45:04.273Z,8.73
2022-10-22T04:47:31.743Z,8.80
2022-10-22T04:49:59.175Z,8.81
2022-10-22T04:52:26.641Z,8.59
2022-10-22T04:54:54.198Z,8.15
2022-10-22T04:57:21.738Z,8.16
2022-10-22T04:59:49.532Z,8.24
2022-10-22T05:02:17.214Z,8.29
2022-10-22T05:04:44.812Z,8.40
2022-10-22T05:07:12.284Z,8.54
2022-10-22T05:09:39.953Z,8.59
2022-10-22T05:12:07.462Z,8.69
2022-10-22T05:14:34.934Z,8.72
2022-10-22T05:17:02.379Z,8.78
2022-10-22T05:19:31.162Z,8.55
2022-10-22T05:22:01.180Z,8.80
2022-10-22T05:24:29.968Z,8.86
2022-10-22T05:26:59.214Z,9.03
2022-10-22T05:29:27.358Z,9.14
2022-10-22T05:31:55.273Z,8.94
2022-10-22T05:34:23.157Z,9.01
2022-10-22T05:36:51.027Z,8.98
2022-10-22T05:39:18.590Z,8.93
2022-10-22T05:41:46.021Z,8.91
2022-10-22T05:44:13.902Z,8.94
2022-10-22T05:46:43.312Z,8.99
2022-10-22T05:49:13.624Z,9.07
2022-10-22T05:51:41.485Z,9.05
2022-10-22T05:54:14.535Z,9.04
2022-10-22T05:56:41.988Z,9.21
2022-10-22T05:59:10.984Z,9.33
2022-10-22T06:01:39.584Z,9.46
2022-10-22T06:04:10.167Z,9.67
2022-10-22T06:06:46.988Z,9.77
2022-10-22T06:09:25.460Z,9.92
2022-10-22T06:11:53.322Z,9.99
2022-10-22T06:14:21.464Z,10.16
2022-10-22T06:16:50.090Z,10.27
2022-10-22T06:19:19.851Z,10.57
2022-10-22T06:21:47.967Z,10.67
2022-10-22T06:24:15.903Z,11.01
2022-10-22T06:26:43.887Z,10.92
2022-10-22T06:29:11.586Z,10.99
2022-10-22T06:31:39.203Z,11.11
2022-10-22T06:34:10.294Z,11.52
2022-10-22T06:36:38.022Z,11.79
2022-10-22T06:39:05.739Z,12.04
2022-10-22T06:41:33.333Z,12.36
2022-10-22T06:44:01.007Z,13.05
2022-10-22T06:46:28.531Z,13.32
2022-10-22T06:49:03.122Z,13.89
2022-10-22T06:51:30.607Z,13.99
2022-10-22T06:53:59.588Z,14.19
2022-10-22T06:56:29.373Z,14.50
2022-10-22T06:58:58.371Z,14.49
2022-10-22T07:01:32.323Z,15.05
2022-10-22T07:04:00.404Z,15.16
2022-10-22T07:06:29.059Z,15.17
2022-10-22T07:08:58.516Z,14.59
2022-10-22T07:11:45.658Z,14.44
2022-10-22T07:14:14.321Z,14.49
2022-10-22T07:16:43.154Z,14.51
2022-10-22T07:19:11.235Z,14.33
2022-10-22T07:21:39.814Z,14.63
2022-10-22T07:24:07.767Z,14.92
2022-10-22T07:26:35.376Z,16.58
2022-10-22T07:29:04.356Z,19.65
2022-10-22T07:31:34.194Z,24.15
2022-10-22T07:34:02.931Z,25.35
2022-10-22T07:36:30.448Z,27.21
2022-10-22T07:38:59.733Z,28.56
2022-10-22T07:41:29.630Z,27.79
2022-10-22T07:43:58.514Z,29.74
2022-10-22T07:46:26.933Z,30.59
2022-10-22T07:48:54.838Z,31.68
2022-10-22T07:51:23.118Z,31.66
2022-10-22T07:53:50.631Z,32.53
2022-10-22T07:56:18.128Z,32.37
2022-10-22T07:58:45.733Z,34.19
2022-10-22T08:01:13.425Z,32.39
2022-10-22T08:03:40.977Z,32.41
2022-10-22T08:06:10.248Z,34.35
2022-10-22T08:08:37.800Z,33.60
2022-10-22T08:11:05.591Z,30.91
2022-10-22T08:13:33.113Z,27.11
2022-10-22T08:16:00.756Z,28.42
2022-10-22T08:18:28.941Z,27.59
2022-10-22T08:20:57.361Z,23.87
2022-10-22T08:23:27.728Z,23.71
2022-10-22T08:25:57.492Z,22.42
2022-10-22T08:28:25.138Z,21.69
2022-10-22T08:30:52.665Z,20.52
2022-10-22T08:33:20.511Z,20.03
2022-10-22T08:35:52.093Z,19.59
2022-10-22T08:38:19.853Z,18.74
2022-10-22T08:40:54.108Z,18.78
2022-10-22T08:44:06.907Z,18.82
2022-10-22T08:46:43.480Z,18.49
2022-10-22T08:49:39.841Z,18.80
2022-10-22T08:52:16.094Z,18.97
2022-10-22T08:54:57.500Z,18.15
2022-10-22T08:58:02.689Z,18.42
2022-10-22T09:00:59.458Z,18.02
2022-10-22T09:03:44.923Z,17.83
2022-10-22T09:06:18.390Z,17.33
2022-10-22T09:08:47.580Z,17.88
2022-10-22T09:11:30.400Z,17.49
2022-10-22T09:13:59.695Z,17.26
2022-10-22T09:16:37.763Z,17.46
2022-10-22T09:19:24.395Z,17.49
2022-10-22T09:22:10.053Z,17.82
2022-10-22T09:24:39.521Z,17.71
2022-10-22T09:27:26.020Z,17.98
2022-10-22T09:29:53.551Z,18.05
2022-10-22T09:32:21.169Z,17.95
2022-10-22T09:34:49.869Z,17.93
2022-10-22T09:37:19.743Z,18.08
2022-10-22T09:39:53.165Z,18.49
2022-10-22T09:42:22.249Z,18.28
2022-10-22T09:45:00.075Z,17.59
2022-10-22T09:47:43.306Z,17.64
2022-10-22T09:50:37.130Z,18.42
2022-10-22T09:53:11.349Z,18.69
2022-10-22T09:55:41.697Z,18.57
2022-10-22T09:58:14.016Z,18.81
2022-10-22T10:00:45.862Z,18.37
2022-10-22T10:03:23.021Z,18.49
2022-10-22T10:05:54.797Z,18.52
2022-10-22T10:08:23.139Z,18.08
2022-10-22T10:10:59.894Z,18.78
2022-10-22T10:13:34.528Z,18.61
2022-10-22T10:16:27.931Z,19.22
2022-10-22T10:19:21.431Z,19.44
2022-10-22T10:22:05.377Z,19.03
2022-10-22T10:25:02.848Z,18.99
2022-10-22T10:28:17.969Z,19.04
2022-10-22T10:30:59.510Z,19.16
2022-10-22T10:33:41.614Z,19.55
2022-10-22T10:36:36.192Z,19.66
2022-10-22T10:39:12.906Z,20.10
2022-10-22T10:42:12.666Z,19.69
2022-10-22T10:44:57.501Z,19.50
2022-10-22T10:47:43.534Z,19.49
2022-10-22T10:50:17.131Z,19.41
2022-10-22T10:52:53.593Z,18.91
2022-10-22T10:55:32.892Z,18.81
2022-10-22T10:58:23.523Z,18.62
2022-10-22T11:00:59.714Z,18.74
2022-10-22T11:03:34.943Z,18.47
2022-10-22T11:06:08.219Z,18.40
2022-10-22T11:08:50.038Z,18.55
2022-10-22T11:11:36.696Z,18.31
2022-10-22T11:14:40.718Z,18.20
2022-10-22T11:17:16.078Z,18.68
2022-10-22T11:20:13.995Z,18.48
2022-10-22T11:23:18.859Z,18.20
2022-10-22T11:25:49.962Z,18.48
2022-10-22T11:28:25.723Z,18.89
2022-10-22T11:31:00.421Z,19.23
2022-10-22T11:33:40.258Z,19.16
2022-10-22T11:36:12.746Z,19.35
2022-10-22T11:38:40.309Z,19.54
2022-10-22T11:41:13.799Z,19.86
2022-10-22T11:44:04.956Z,19.86
2022-10-22T11:47:10.276Z,20.02
2022-10-22T11:50:25.759Z,20.26
2022-10-22T11:53:08.403Z,20.17
2022-10-22T11:55:55.562Z,20.37
2022-10-22T11:58:28.958Z,20.56
2022-10-22T12:01:02.185Z,20.73
2022-10-22T12:03:32.973Z,20.70
2022-10-22T12:06:12.369Z,20.87
2022-10-22T12:08:48.890Z,20.96
2022-10-22T12:11:20.216Z,20.47
2022-10-22T12:14:19.837Z,20.31
2022-10-22T12:16:57.311Z,19.64
2022-10-22T12:19:28.220Z,19.22
2022-10-22T12:22:02.289Z,19.07
2022-10-22T12:24:35.613Z,18.83
2022-10-22T12:27:05.701Z,18.61
2022-10-22T12:29:33.743Z,18.64
2022-10-22T12:32:06.104Z,18.83
2022-10-22T12:34:33.691Z,18.40
2022-10-22T12:37:05.165Z,18.48
2022-10-22T12:39:35.458Z,18.38
2022-10-22T12:42:05.276Z,18.33
2022-10-22T12:44:33.259Z,18.09
2022-10-22T12:47:00.796Z,18.21
2022-10-22T12:49:44.117Z,18.20
2022-10-22T12:52:17.652Z,18.14
2022-10-22T12:54:49.389Z,18.22
2022-10-22T12:57:19.631Z,18.34
2022-10-22T12:59:50.240Z,18.36
2022-10-22T13:02:27.407Z,18.42
2022-10-22T13:05:16.349Z,18.45
2022-10-22T13:08:03.670Z,18.48
2022-10-22T13:10:35.343Z,18.49
2022-10-22T13:13:06.828Z,18.42
2022-10-22T13:15:37.863Z,18.14
2022-10-22T13:18:19.415Z,17.98
2022-10-22T13:20:57.516Z,17.96
2022-10-22T13:23:28.134Z,18.27
2022-10-22T13:25:59.256Z,18.06
2022-10-22T13:28:27.762Z,18.00
2022-10-22T13:31:01.058Z,18.13
2022-10-22T13:33:36.570Z,18.17
2022-10-22T13:36:05.321Z,18.36
2022-10-22T13:38:33.090Z,17.99
2022-10-22T13:41:03.140Z,17.97
2022-10-22T13:43:30.844Z,17.93
2022-10-22T13:46:00.067Z,18.00
2022-10-22T13:48:32.960Z,18.01
2022-10-22T13:51:00.485Z,18.18
2022-10-22T13:53:30.338Z,17.77
2022-10-22T13:55:57.851Z,17.82
2022-10-22T13:58:25.683Z,17.79
2022-10-22T14:00:57.163Z,17.84
2022-10-22T14:03:35.723Z,17.55
2022-10-22T14:06:03.360Z,17.35
2022-10-22T14:08:32.021Z,17.53
2022-10-22T14:10:59.582Z,17.94
2022-10-22T14:13:28.417Z,17.65
2022-10-22T14:15:55.972Z,17.55
2022-10-22T14:18:28.912Z,17.67
2022-10-22T14:20:59.963Z,16.81
2022-10-22T14:23:29.769Z,17.01
2022-10-22T14:25:58.162Z,17.01
2022-10-22T14:28:25.796Z,16.96
2022-10-22T14:30:54.253Z,17.00
2022-10-22T14:33:30.371Z,17.02
2022-10-22T14:36:00.230Z,16.75
2022-10-22T14:38:28.499Z,16.69
2022-10-22T14:40:57.200Z,16.87
2022-10-22T14:43:28.285Z,16.83
2022-10-22T14:45:55.812Z,16.58
2022-10-22T14:48:24.096Z,16.59
2022-10-22T14:50:52.610Z,16.37
2022-10-22T14:53:20.205Z,16.46
2022-10-22T14:55:49.200Z,16.37
2022-10-22T14:58:17.013Z,16.61
2022-10-22T15:00:44.502Z,16.27
2022-10-22T15:03:12.151Z,16.05
2022-10-22T15:05:44.632Z,16.15
2022-10-22T15:08:15.034Z,16.42
2022-10-22T15:10:42.675Z,16.44
2022-10-22T15:13:10.240Z,15.99
2022-10-22T15:15:41.284Z,16.14
2022-10-22T15:18:08.983Z,15.94
2022-10-22T15:20:36.546Z,16.18
2022-10-22T15:23:04.254Z,16.15
2022-10-22T15:25:32.623Z,16.25
2022-10-22T15:28:02.063Z,16.34
2022-10-22T15:30:35.057Z,15.89
2022-10-22T15:33:02.606Z,15.62
2022-10-22T15:35:30.170Z,15.69
2022-10-22T15:37:57.702Z,15.84
2022-10-22T15:40:25.154Z,15.99
2022-10-22T15:42:52.661Z,15.92
2022-10-22T15:45:21.961Z,15.81
2022-10-22T15:47:49.929Z,15.54
2022-10-22T15:50:17.785Z,15.71
2022-10-22T15:52:45.340Z,15.78
2022-10-22T15:57:45.546Z,15.48
2022-10-22T16:00:14.036Z,15.38
2022-10-22T16:02:42.632Z,15.60
2022-10-22T16:05:10.153Z,15.69
2022-10-22T16:07:37.948Z,15.49
2022-10-22T16:10:07.641Z,15.17
2022-10-22T16:12:36.073Z,15.16
2022-10-22T16:15:04.111Z,15.19
2022-10-22T16:17:31.696Z,14.77
2022-10-22T16:19:59.196Z,14.65
2022-10-22T16:22:26.715Z,14.79
2022-10-22T16:24:54.438Z,14.40
2022-10-22T16:27:22.162Z,14.46
2022-10-22T16:29:49.737Z,14.67
2022-10-22T16:32:17.890Z,14.56
2022-10-22T16:34:45.446Z,14.83
2022-10-22T16:37:13.041Z,14.00
2022-10-22T16:39:40.589Z,14.03
2022-10-22T16:42:08.321Z,14.46
2022-10-22T16:44:35.834Z,14.46
2022-10-22T16:47:03.550Z,14.15
2022-10-22T16:49:31.153Z,14.02
2022-10-22T16:51:58.839Z,14.18
2022-10-22T16:54:27.731Z,14.16
2022-10-22T16:56:55.211Z,14.13
2022-10-22T16:59:22.992Z,13.99
2022-10-22T17:01:50.759Z,13.81
2022-10-22T17:04:18.894Z,13.91
2022-10-22T17:06:46.735Z,13.94
2022-10-22T17:09:14.646Z,13.72
2022-10-22T17:11:44.088Z,13.89
2022-10-22T17:14:12.583Z,13.60
2022-10-22T17:16:40.386Z,13.36
2022-10-22T17:19:08.209Z,13.74
2022-10-22T17:21:35.982Z,13.44
2022-10-22T17:24:04.053Z,13.46
2022-10-22T17:26:33.321Z,13.51
2022-10-22T17:29:02.126Z,13.55
2022-10-22T17:31:38.077Z,13.55
2022-10-22T17:34:14.808Z,13.55
2022-10-22T17:36:43.316Z,13.67
2022-10-22T17:39:16.577Z,13.90
2022-10-22T17:41:44.321Z,13.71
2022-10-22T17:44:12.378Z,13.86
2022-10-22T17:46:40.634Z,13.88
2022-10-22T17:49:17.183Z,13.65
2022-10-22T17:51:45.414Z,13.89
2022-10-22T17:54:13.984Z,13.61
2022-10-22T17:56:41.941Z,13.77
2022-10-22T17:59:14.569Z,13.99
2022-10-22T18:01:45.664Z,13.53
2022-10-22T18:04:16.328Z,13.68
2022-10-22T18:06:46.151Z,13.54
2022-10-22T18:09:18.428Z,13.66
2022-10-22T18:11:49.166Z,13.24
2022-10-22T18:14:18.589Z,13.31
2022-10-22T18:16:47.113Z,13.29
2022-10-22T18:19:22.953Z,13.57
2022-10-22T18:21:50.678Z,13.60
2022-10-22T18:24:18.384Z,13.40
2022-10-22T18:26:46.143Z,13.28
2022-10-22T18:29:17.030Z,13.46
2022-10-22T18:31:45.032Z,13.56
2022-10-22T18:34:13.220Z,13.60
2022-10-22T18:36:41.904Z,13.47
2022-10-22T18:39:14.323Z,13.41
2022-10-22T18:41:43.247Z,13.26
2022-10-22T18:44:12.790Z,13.25
2022-10-22T18:46:40.983Z,13.25
2022-10-22T18:49:11.716Z,12.99
2022-10-22T18:51:39.415Z,13.02
2022-10-22T18:54:22.032Z,13.30
2022-10-22T18:56:52.404Z,13.50
2022-10-22T18:59:25.656Z,13.26
2022-10-22T19:01:56.043Z,13.30
2022-10-22T19:04:23.770Z,13.27
2022-10-22T19:06:51.560Z,13.05
2022-10-22T19:09:19.426Z,13.34
2022-10-22T19:11:47.436Z,13.05
2022-10-22T19:14:19.243Z,13.09
2022-10-22T19:16:47.060Z,12.96
2022-10-22T19:19:21.782Z,12.92
2022-10-22T19:21:49.570Z,12.78
2022-10-22T19:24:18.862Z,12.70
2022-10-22T19:26:47.647Z,12.63
2022-10-22T19:29:17.480Z,12.52
2022-10-22T19:31:45.912Z,12.57
2022-10-22T19:34:13.758Z,12.34
2022-10-22T19:36:41.387Z,12.35
2022-10-22T19:39:09.383Z,12.27
2022-10-22T19:41:37.350Z,12.39
2022-10-22T19:44:05.085Z,12.36
2022-10-22T19:46:32.962Z,12.45
2022-10-22T19:49:02.251Z,12.41
2022-10-22T19:51:31.387Z,12.32
2022-10-22T19:54:04.658Z,12.24
2022-10-22T19:56:34.041Z,12.27
2022-10-22T19:59:03.185Z,12.08
2022-10-22T20:01:34.680Z,12.20
2022-10-22T20:04:02.514Z,12.03
2022-10-22T20:06:30.797Z,12.07
2022-10-22T20:08:58.546Z,11.96
2022-10-22T20:11:29.518Z,12.07
2022-10-22T20:13:57.967Z,12.13
2022-10-22T20:16:29.677Z,12.13
2022-10-22T20:19:02.658Z,12.10
2022-10-22T20:21:30.741Z,12.01
2022-10-22T20:23:58.624Z,11.90
2022-10-22T20:26:28.198Z,11.98
2022-10-22T20:28:57.136Z,11.96
2022-10-22T20:31:27.853Z,12.08
2022-10-22T20:33:58.616Z,11.96
2022-10-22T20:36:27.317Z,12.15
2022-10-22T20:39:00.632Z,12.42
2022-10-22T20:41:29.623Z,12.49
2022-10-22T20:43:57.403Z,12.34
2022-10-22T20:46:34.727Z,12.34
2022-10-22T20:49:06.071Z,12.46
2022-10-22T20:51:36.026Z,12.24
2022-10-22T20:54:05.373Z,12.15
2022-10-22T20:56:34.644Z,12.19
2022-10-22T20:59:05.526Z,12.16
2022-10-22T21:01:38.722Z,12.46
2022-10-22T21:04:07.255Z,12.20
2022-10-22T21:06:38.064Z,12.23
2022-10-22T21:09:13.296Z,12.28
2022-10-22T21:11:42.978Z,12.33
2022-10-22T21:14:12.867Z,12.20
2022-10-22T21:16:45.379Z,12.25
2022-10-22T21:19:12.901Z,12.20
2022-10-22T21:21:40.565Z,12.08
2022-10-22T21:24:08.843Z,12.12
2022-10-22T21:26:38.940Z,11.90
2022-10-22T21:29:07.207Z,12.22
2022-10-22T21:31:35.079Z,12.13
2022-10-22T21:34:02.882Z,12.18
2022-10-22T21:36:30.355Z,11.93
2022-10-22T21:38:57.913Z,12.02
2022-10-22T21:41:25.432Z,12.10
2022-10-22T21:43:53.000Z,12.08
2022-10-22T21:46:23.408Z,12.01
2022-10-22T21:48:55.999Z,11.92
2022-10-22T21:51:25.509Z,11.84
2022-10-22T21:53:53.707Z,11.36
2022-10-22T21:56:24.701Z,11.35
2022-10-22T21:58:52.822Z,11.47
2022-10-22T22:01:21.029Z,11.47
2022-10-22T22:03:49.974Z,11.45
2022-10-22T22:06:21.365Z,11.47
2022-10-22T22:08:51.838Z,11.39
2022-10-22T22:11:25.480Z,11.27
2022-10-22T22:13:54.852Z,11.22
2022-10-22T22:16:28.411Z,10.90
2022-10-22T22:19:02.161Z,11.12
2022-10-22T22:21:29.813Z,11.07
2022-10-22T22:23:58.271Z,11.16
2022-10-22T22:26:29.854Z,11.26
2022-10-22T22:28:59.327Z,11.26
2022-10-22T22:31:28.259Z,11.30
2022-10-22T22:34:03.183Z,11.41
2022-10-22T22:36:40.139Z,11.42
2022-10-22T22:39:15.696Z,11.64
2022-10-22T22:41:44.220Z,11.62
2022-10-22T22:44:12.210Z,11.77
2022-10-22T22:46:40.237Z,11.80
2022-10-22T22:49:08.267Z,11.72
2022-10-22T22:51:36.019Z,11.80
2022-10-22T22:54:03.724Z,11.83
2022-10-22T22:56:34.528Z,11.65
2022-10-22T22:59:03.667Z,11.03
2022-10-22T23:01:36.560Z,11.40
2022-10-22T23:04:11.872Z,11.63
2022-10-22T23:06:39.754Z,11.45
2022-10-22T23:09:09.554Z,11.43
2022-10-22T23:11:38.308Z,11.61
2022-10-22T23:14:07.527Z,11.60
2022-10-22T23:16:37.784Z,11.78
2022-10-22T23:19:05.877Z,11.41
2022-10-22T23:21:35.914Z,11.79
2022-10-22T23:24:09.472Z,11.92
2022-10-22T23:26:40.845Z,12.03
2022-10-22T23:29:13.551Z,11.98
2022-10-22T23:31:42.326Z,11.88
2022-10-22T23:34:11.771Z,11.90
2022-10-22T23:36:39.819Z,11.77
2022-10-22T23:39:12.766Z,11.00
2022-10-22T23:41:40.300Z,11.45
2022-10-22T23:44:09.189Z,11.38
2022-10-22T23:46:38.536Z,11.37
2022-10-22T23:49:07.792Z,11.60
2022-10-22T23:51:36.197Z,11.50
2022-10-22T23:54:06.297Z,11.56
2022-10-22T23:56:33.821Z,11.71
2022-10-22T23:59:01.722Z,11.70
